Time;durP1;ratioP1;P1;durP2;ratioP2;P2;SDS_P1;SDS_P2;PMS_P1;PMS_P2;Temp;Humidity;BMP_temperature;BMP_pressure;BME280_temperature;BME280_humidity;BME280_pressure;Samples;Min_cycle;Max_cycle;Signal;HPM_P1;HPM_P2
2023/06/13 00:00:51;;;;;;;1.00;1.00;;;18.80;99.90;;;;;;5091079;28;20373;-67
2023/06/13 00:03:19;;;;;;;0.63;0.63;;;18.80;99.90;;;;;;5092005;28;20070;-67
2023/06/13 00:05:46;;;;;;;0.65;0.65;;;18.40;99.90;;;;;;5092145;28;20086;-66
2023/06/13 00:08:24;;;;;;;0.22;0.22;;;18.40;99.90;;;;;;5074329;28;20091;-68
2023/06/13 00:10:51;;;;;;;0.40;0.40;;;18.50;99.90;;;;;;5092127;28;20053;-67
2023/06/13 00:13:18;;;;;;;0.40;0.40;;;18.30;99.90;;;;;;5091962;28;20044;-68
2023/06/13 00:15:49;;;;;;;0.50;0.50;;;18.50;99.90;;;;;;5092078;28;20123;-68
2023/06/13 00:18:17;;;;;;;0.28;0.28;;;18.40;99.90;;;;;;5092010;28;20396;-68
2023/06/13 00:20:44;;;;;;;0.80;0.80;;;18.30;99.90;;;;;;5091926;28;20052;-68
2023/06/13 00:23:09;;;;;;;0.28;0.28;;;18.20;99.90;;;;;;5090820;28;20056;-69
2023/06/13 00:25:35;;;;;;;1.67;0.75;;;18.00;99.90;;;;;;5091567;28;20047;-68
2023/06/13 00:28:01;;;;;;;0.35;0.35;;;18.00;99.90;;;;;;5091890;28;20048;-69
2023/06/13 00:30:27;;;;;;;0.35;0.35;;;18.10;99.90;;;;;;5091642;28;20480;-68
2023/06/13 00:32:54;;;;;;;0.43;0.40;;;18.10;99.90;;;;;;5092149;28;20157;-68
2023/06/13 00:35:21;;;;;;;0.20;0.20;;;17.90;99.90;;;;;;5092131;28;20149;-68
2023/06/13 00:37:50;;;;;;;0.85;0.57;;;18.20;99.90;;;;;;5091893;28;20135;-68
2023/06/13 00:40:17;;;;;;;1.15;0.35;;;17.90;99.90;;;;;;5091680;28;20056;-69
2023/06/13 00:42:43;;;;;;;0.20;0.20;;;17.80;99.90;;;;;;5091554;28;20162;-68
2023/06/13 00:45:21;;;;;;;0.52;0.52;;;18.00;99.90;;;;;;5091402;28;20101;-66
2023/06/13 00:47:54;;;;;;;0.52;0.52;;;17.90;99.90;;;;;;5093241;28;20509;-67
2023/06/13 00:50:26;;;;;;;0.25;0.25;;;17.70;99.90;;;;;;5095865;28;20087;-69
2023/06/13 00:52:52;;;;;;;0.50;0.50;;;17.50;99.90;;;;;;5095682;28;20113;-68
2023/06/13 00:55:18;;;;;;;3.33;1.35;;;17.70;99.90;;;;;;5095368;28;20044;-67
2023/06/13 00:57:44;;;;;;;0.40;0.40;;;17.60;99.90;;;;;;5094702;28;20075;-65
2023/06/13 01:00:10;;;;;;;0.25;0.25;;;17.60;99.90;;;;;;5095570;28;20051;-67
2023/06/13 01:02:36;;;;;;;0.47;0.47;;;17.60;99.90;;;;;;5095559;28;20059;-69
2023/06/13 01:05:03;;;;;;;0.60;0.30;;;17.40;99.90;;;;;;5095350;28;20052;-68
2023/06/13 01:07:33;;;;;;;0.25;0.25;;;17.40;99.90;;;;;;5095307;28;20044;-67
2023/06/13 01:10:00;;;;;;;0.32;0.32;;;17.50;99.90;;;;;;5095126;28;20055;-67
2023/06/13 01:12:33;;;;;;;0.32;0.32;;;17.30;99.90;;;;;;5095410;28;20044;-67
2023/06/13 01:15:08;;;;;;;0.82;0.82;;;17.30;99.90;;;;;;5095206;28;20480;-67
2023/06/13 01:17:57;;;;;;;0.50;0.50;;;17.10;99.90;;;;;;5095241;28;20130;-67
2023/06/13 01:20:27;;;;;;;0.25;0.25;;;17.10;99.90;;;;;;5095059;28;20496;-67
2023/06/13 01:23:16;;;;;;;0.28;0.28;;;17.40;99.90;;;;;;5095306;28;20044;-67
2023/06/13 01:25:52;;;;;;;0.88;0.88;;;17.40;99.90;;;;;;5086955;28;20052;-68
2023/06/13 01:28:20;;;;;;;2.00;0.90;;;17.30;99.90;;;;;;5095074;28;20162;-68
2023/06/13 01:30:48;;;;;;;0.28;0.28;;;17.40;99.90;;;;;;5093572;28;20131;-67
2023/06/13 01:33:16;;;;;;;0.40;0.40;;;17.20;99.90;;;;;;5095082;28;20052;-68
2023/06/13 01:35:42;;;;;;;0.98;0.82;;;17.10;99.90;;;;;;5094920;28;20052;-68
2023/06/13 01:38:08;;;;;;;0.52;0.52;;;16.70;99.90;;;;;;5093633;28;20094;-67
2023/06/13 01:40:34;;;;;;;0.20;0.20;;;17.00;99.90;;;;;;5094779;28;20047;-66
2023/06/13 01:43:00;;;;;;;1.60;0.70;;;17.00;99.90;;;;;;5094653;28;20063;-69
2023/06/13 01:45:26;;;;;;;0.60;0.60;;;17.20;99.90;;;;;;5094433;28;20048;-69
2023/06/13 01:48:14;;;;;;;0.52;0.50;;;16.90;99.90;;;;;;5094729;28;20094;-68
2023/06/13 01:50:53;;;;;;;0.35;0.35;;;16.70;99.90;;;;;;5094709;28;20050;-68
2023/06/13 01:53:28;;;;;;;1.00;0.75;;;16.90;99.90;;;;;;5094637;28;20464;-68
2023/06/13 01:56:02;;;;;;;0.52;0.52;;;16.80;99.90;;;;;;5094369;28;20117;-69
2023/06/13 01:58:36;;;;;;;0.40;0.40;;;16.90;99.90;;;;;;5094045;28;20048;-69
2023/06/13 02:01:04;;;;;;;0.65;0.43;;;16.60;99.90;;;;;;5093147;28;20087;-69
2023/06/13 02:03:32;;;;;;;0.65;0.65;;;16.60;99.90;;;;;;5094356;28;20058;-69
2023/06/13 02:05:58;;;;;;;0.40;0.40;;;16.50;99.90;;;;;;5094253;28;20040;-68
2023/06/13 02:08:24;;;;;;;0.28;0.28;;;16.30;99.90;;;;;;5094121;28;20048;-68
2023/06/13 02:10:50;;;;;;;2.45;0.90;;;16.10;99.90;;;;;;5094290;28;20083;-69
2023/06/13 02:13:16;;;;;;;0.55;0.55;;;16.10;99.90;;;;;;5094458;28;20391;-69
2023/06/13 02:15:41;;;;;;;0.60;0.57;;;16.30;99.90;;;;;;5093034;28;20246;-68
2023/06/13 02:18:09;;;;;;;3.03;0.90;;;15.80;99.90;;;;;;5094103;28;20043;-69
2023/06/13 02:20:34;;;;;;;0.25;0.25;;;15.80;99.90;;;;;;5093941;28;20048;-68
2023/06/13 02:23:04;;;;;;;2.90;0.70;;;15.90;99.90;;;;;;5093916;28;20068;-68
2023/06/13 02:25:30;;;;;;;0.40;0.40;;;15.70;99.90;;;;;;5093815;28;20036;-68
2023/06/13 02:27:56;;;;;;;0.30;0.30;;;15.50;99.90;;;;;;5093832;28;20099;-69
2023/06/13 02:30:22;;;;;;;1.10;0.65;;;15.60;99.90;;;;;;5094120;28;20094;-70
2023/06/13 02:32:50;;;;;;;;;;;15.60;99.90;;;;;;5094300;28;20039;-69
2023/06/13 02:35:17;;;;;;;0.50;0.50;;;15.80;99.90;;;;;;5093759;28;20065;-70
2023/06/13 02:37:43;;;;;;;0.60;0.60;;;15.50;99.90;;;;;;5093457;28;20045;-69
2023/06/13 02:40:09;;;;;;;0.43;0.43;;;15.50;99.90;;;;;;5093699;28;20096;-68
2023/06/13 02:42:35;;;;;;;0.38;0.38;;;15.50;99.90;;;;;;5093753;28;20070;-68
2023/06/13 02:45:01;;;;;;;0.70;0.70;;;15.80;99.90;;;;;;5093785;28;20543;-67
2023/06/13 02:47:26;;;;;;;;;;;15.40;99.90;;;;;;5093842;28;20079;-69
2023/06/13 02:49:52;;;;;;;0.40;0.40;;;15.70;99.90;;;;;;5093456;28;20363;-69
2023/06/13 02:52:21;;;;;;;0.45;0.45;;;15.70;99.90;;;;;;5093211;28;20055;-68
2023/06/13 02:54:48;;;;;;;0.80;0.70;;;15.30;99.90;;;;;;5092209;28;20095;-68
2023/06/13 02:57:14;;;;;;;0.88;0.88;;;15.60;99.90;;;;;;5075261;28;20039;-68
2023/06/13 02:59:42;;;;;;;0.47;0.47;;;15.40;99.90;;;;;;5093234;28;20554;-67
2023/06/13 03:02:08;;;;;;;0.43;0.43;;;15.40;99.90;;;;;;5093175;28;20506;-69
2023/06/13 03:04:33;;;;;;;;;;;15.40;99.90;;;;;;5093459;28;20091;-69
2023/06/13 03:07:00;;;;;;;0.65;0.65;;;15.60;99.90;;;;;;5093289;28;20318;-68
2023/06/13 03:09:26;;;;;;;1.77;1.50;;;15.40;99.90;;;;;;5091746;28;20048;-68
2023/06/13 03:11:52;;;;;;;0.22;0.22;;;15.50;99.90;;;;;;5091582;28;20096;-68
2023/06/13 03:14:17;;;;;;;;;;;15.60;99.90;;;;;;5093329;28;20089;-68
2023/06/13 03:16:43;;;;;;;0.25;0.25;;;16.00;99.90;;;;;;5092952;28;19924;-68
2023/06/13 03:19:09;;;;;;;;;;;15.40;99.90;;;;;;5093175;28;20529;-68
2023/06/13 03:21:35;;;;;;;0.40;0.40;;;15.70;99.90;;;;;;5092922;28;20253;-69
2023/06/13 03:24:01;;;;;;;0.30;0.30;;;15.80;99.90;;;;;;5092871;28;20048;-68
2023/06/13 03:26:28;;;;;;;0.30;0.30;;;15.40;99.90;;;;;;5092734;28;20389;-69
2023/06/13 03:28:54;;;;;;;0.73;0.73;;;15.40;99.90;;;;;;5092725;28;20132;-68
2023/06/13 03:31:19;;;;;;;;;;;15.60;99.90;;;;;;5093140;28;20101;-69
2023/06/13 03:33:45;;;;;;;0.20;0.20;;;15.50;99.90;;;;;;5092584;28;19920;-68
2023/06/13 03:36:11;;;;;;;;;;;16.70;99.90;;;;;;5092896;28;20472;-68
2023/06/13 03:38:36;;;;;;;0.30;0.30;;;15.40;99.90;;;;;;5092619;28;20338;-68
2023/06/13 03:41:02;;;;;;;;;;;15.20;99.90;;;;;;5092969;28;20126;-69
2023/06/13 03:43:27;;;;;;;0.63;0.63;;;15.40;99.90;;;;;;5092530;28;19927;-68
2023/06/13 03:45:53;;;;;;;;;;;15.50;99.90;;;;;;5091634;28;20377;-67
2023/06/13 03:48:19;;;;;;;0.73;0.73;;;14.90;99.90;;;;;;5091156;28;19924;-68
2023/06/13 03:50:44;;;;;;;;;;;15.00;99.90;;;;;;5092925;28;20040;-67
2023/06/13 03:53:10;;;;;;;0.63;0.63;;;14.70;99.90;;;;;;5092434;28;20337;-67
2023/06/13 03:55:36;;;;;;;;;;;14.80;99.90;;;;;;5092762;28;20055;-68
2023/06/13 03:58:03;;;;;;;0.30;0.30;;;14.90;99.90;;;;;;5091866;28;19977;-69
2023/06/13 04:00:33;;;;;;;0.65;0.65;;;14.80;99.90;;;;;;5074295;28;20097;-67
2023/06/13 04:03:00;;;;;;;0.55;0.55;;;14.70;99.90;;;;;;5092078;28;20083;-67
2023/06/13 04:05:26;;;;;;;0.38;0.38;;;14.60;99.90;;;;;;5091833;28;20127;-67
2023/06/13 04:07:54;;;;;;;1.70;1.27;;;14.60;99.90;;;;;;5092170;28;20052;-68
2023/06/13 04:10:20;;;;;;;0.35;0.35;;;14.80;99.90;;;;;;5092099;28;20044;-68
2023/06/13 04:12:47;;;;;;;0.68;0.68;;;15.00;99.90;;;;;;5092025;28;20040;-68
2023/06/13 04:15:13;;;;;;;1.13;0.85;;;14.60;99.90;;;;;;5091959;28;20047;-67
2023/06/13 04:17:40;;;;;;;0.60;0.60;;;14.70;99.90;;;;;;5091855;28;20113;-66
2023/06/13 04:20:06;;;;;;;1.15;0.70;;;14.90;99.90;;;;;;5092099;28;20044;-68
2023/06/13 04:22:32;;;;;;;0.60;0.60;;;14.80;99.90;;;;;;5091929;28;20052;-67
2023/06/13 04:24:58;;;;;;;;;;;14.80;99.90;;;;;;5091291;28;20185;-67
2023/06/13 04:27:28;;;;;;;0.82;0.82;;;14.80;99.90;;;;;;5073718;28;20033;-67
2023/06/13 04:29:55;;;;;;;0.82;0.60;;;14.90;99.90;;;;;;5090906;28;20059;-68
2023/06/13 04:32:23;;;;;;;0.30;0.30;;;15.30;99.90;;;;;;5091688;28;20048;-68
2023/06/13 04:34:55;;;;;;;0.80;0.80;;;15.10;99.90;;;;;;5090908;28;20048;-68
2023/06/13 04:37:25;;;;;;;0.40;0.40;;;15.20;99.90;;;;;;5091929;28;20040;-67
2023/06/13 04:39:55;;;;;;;0.30;0.30;;;15.50;99.90;;;;;;5091828;28;20055;-66
2023/06/13 04:42:26;;;;;;;0.40;0.40;;;15.80;99.90;;;;;;5091612;28;20047;-67
2023/06/13 04:44:55;;;;;;;0.50;0.50;;;15.80;99.90;;;;;;5091644;28;20048;-66
2023/06/13 04:47:29;;;;;;;2.05;1.85;;;15.90;99.90;;;;;;5090501;28;20052;-67
2023/06/13 04:49:58;;;;;;;0.63;0.57;;;15.80;99.90;;;;;;5091771;28;20044;-67
2023/06/13 04:52:29;;;;;;;0.38;0.38;;;15.60;99.90;;;;;;5091569;28;20048;-67
2023/06/13 04:54:56;;;;;;;0.55;0.50;;;16.10;99.90;;;;;;5091466;28;20058;-68
2023/06/13 04:57:22;;;;;;;0.55;0.55;;;16.10;99.90;;;;;;5091443;28;20080;-68
2023/06/13 04:59:48;;;;;;;;;;;16.30;99.90;;;;;;5092108;28;20515;-67
2023/06/13 05:02:16;;;;;;;0.43;0.35;;;16.60;99.90;;;;;;5091625;28;19927;-68
2023/06/13 05:04:42;;;;;;;0.75;0.50;;;16.60;99.90;;;;;;5091500;28;20105;-65
2023/06/13 05:07:07;;;;;;;;;;;16.60;99.90;;;;;;5091847;28;20048;-68
2023/06/13 05:09:33;;;;;;;0.32;0.32;;;16.70;99.90;;;;;;5091365;28;20027;-67
2023/06/13 05:11:59;;;;;;;0.57;0.50;;;17.00;99.90;;;;;;5091248;28;20044;-67
2023/06/13 05:14:25;;;;;;;;;;;16.70;99.90;;;;;;5091905;28;20101;-66
2023/06/13 05:16:53;;;;;;;1.08;0.73;;;16.90;99.90;;;;;;5090373;28;19924;-67
2023/06/13 05:19:19;;;;;;;0.43;0.43;;;16.90;99.90;;;;;;5090161;28;20090;-65
2023/06/13 05:21:46;;;;;;;;;;;17.20;99.90;;;;;;5091809;28;20543;-67
2023/06/13 05:24:13;;;;;;;0.30;0.30;;;17.60;99.90;;;;;;5091305;28;19928;-67
2023/06/13 05:26:39;;;;;;;0.30;0.30;;;17.20;99.90;;;;;;5091086;28;20264;-67
2023/06/13 05:29:05;;;;;;;0.20;0.20;;;17.40;99.90;;;;;;5091455;28;20181;-67
2023/06/13 05:31:33;;;;;;;0.40;0.40;;;17.80;99.90;;;;;;5091379;28;20185;-67
2023/06/13 05:34:00;;;;;;;0.93;0.88;;;18.00;99.90;;;;;;5093063;28;20052;-67
2023/06/13 05:36:26;;;;;;;1.55;0.68;;;17.90;99.90;;;;;;5094500;28;20048;-73
2023/06/13 05:38:54;;;;;;;0.50;0.50;;;17.90;99.90;;;;;;5073907;28;20054;-67
2023/06/13 05:41:19;;;;;;;0.45;0.45;;;18.30;99.90;;;;;;5094390;28;20044;-66
2023/06/13 05:43:45;;;;;;;0.35;0.35;;;18.10;99.90;;;;;;5094299;28;20048;-67
2023/06/13 05:46:13;;;;;;;0.20;0.20;;;18.20;99.90;;;;;;5094078;28;20127;-66
2023/06/13 05:48:39;;;;;;;0.30;0.30;;;18.70;99.90;;;;;;5093833;28;20052;-67
2023/06/13 05:51:05;;;;;;;1.38;0.77;;;18.70;99.90;;;;;;5092669;28;20410;-65
2023/06/13 05:53:31;;;;;;;0.50;0.40;;;18.70;99.90;;;;;;5093497;28;20044;-72
2023/06/13 05:55:57;;;;;;;0.47;0.47;;;19.00;99.90;;;;;;5093848;28;20077;-67
2023/06/13 05:58:22;;;;;;;0.38;0.38;;;18.80;99.90;;;;;;5093925;28;20059;-66
2023/06/13 06:00:48;;;;;;;0.20;0.20;;;18.90;99.90;;;;;;5093705;28;20063;-66
2023/06/13 06:03:14;;;;;;;0.30;0.30;;;19.00;99.90;;;;;;5093680;28;20086;-66
2023/06/13 06:05:39;;;;;;;0.40;0.40;;;19.40;99.90;;;;;;5092265;28;20577;-68
2023/06/13 06:08:05;;;;;;;0.43;0.30;;;19.40;99.90;;;;;;5093249;28;20048;-71
2023/06/13 06:10:31;;;;;;;0.10;0.10;;;19.70;99.90;;;;;;5093662;28;20051;-66
2023/06/13 06:12:57;;;;;;;0.80;0.52;;;19.40;99.90;;;;;;5092480;28;20054;-68
2023/06/13 06:15:22;;;;;;;0.10;0.10;;;19.60;99.90;;;;;;5092677;28;20048;-68
2023/06/13 06:17:50;;;;;;;0.80;0.80;;;19.90;99.90;;;;;;5093534;28;20101;-69
2023/06/13 06:20:17;;;;;;;0.30;0.30;;;19.60;99.90;;;;;;5093764;28;20047;-66
2023/06/13 06:22:42;;;;;;;0.38;0.20;;;19.90;99.90;;;;;;5092741;28;20047;-67
2023/06/13 06:25:12;;;;;;;0.10;0.10;;;19.80;99.90;;;;;;5093796;28;20395;-68
2023/06/13 06:27:39;;;;;;;0.30;0.30;;;19.80;99.90;;;;;;5093144;28;20064;-66
2023/06/13 06:30:05;;;;;;;0.28;0.28;;;19.80;99.90;;;;;;5092284;28;20040;-67
2023/06/13 06:32:31;;;;;;;0.93;0.93;;;20.00;99.90;;;;;;5093046;28;20500;-67
2023/06/13 06:34:57;;;;;;;0.15;0.15;;;20.10;99.50;;;;;;5092007;28;20101;-67
2023/06/13 06:37:22;;;;;;;0.30;0.30;;;20.00;99.90;;;;;;5092539;28;20067;-68
2023/06/13 06:39:48;;;;;;;0.47;0.47;;;20.30;99.80;;;;;;5093221;28;20807;-67
2023/06/13 06:42:14;;;;;;;0.20;0.20;;;20.20;99.30;;;;;;5089387;28;20164;-69
2023/06/13 06:44:40;;;;;;;1.15;0.35;;;20.70;98.90;;;;;;5101977;28;20044;-69
2023/06/13 06:47:06;;;;;;;0.20;0.20;;;20.30;97.90;;;;;;5092392;28;20074;-68
2023/06/13 06:49:32;;;;;;;0.65;0.65;;;19.30;98.00;;;;;;5092819;28;20109;-68
2023/06/13 06:51:58;;;;;;;0.45;0.45;;;20.60;97.80;;;;;;5091816;28;20123;-67
2023/06/13 06:54:25;;;;;;;0.68;0.68;;;20.80;98.60;;;;;;5091242;28;20054;-69
2023/06/13 06:56:51;;;;;;;0.17;0.17;;;20.50;97.50;;;;;;5074450;28;20481;-71
2023/06/13 06:59:17;;;;;;;0.40;0.40;;;20.80;97.30;;;;;;5092441;28;20123;-70
2023/06/13 07:01:43;;;;;;;1.58;0.95;;;20.60;97.30;;;;;;5091924;28;20048;-67
2023/06/13 07:04:09;;;;;;;0.50;0.30;;;20.90;97.70;;;;;;5090013;28;20496;-68
2023/06/13 07:06:36;;;;;;;0.50;0.50;;;21.20;98.20;;;;;;5090932;28;20066;-72
2023/06/13 07:09:02;;;;;;;1.75;0.85;;;21.10;98.30;;;;;;5090981;28;20388;-71
2023/06/13 07:11:28;;;;;;;0.10;0.10;;;21.10;97.60;;;;;;5092756;28;20048;-70
2023/06/13 07:13:54;;;;;;;0.20;0.20;;;21.40;98.30;;;;;;5092450;28;20044;-71
2023/06/13 07:16:21;;;;;;;0.40;0.40;;;23.10;97.50;;;;;;5091295;28;20079;-71
2023/06/13 07:18:49;;;;;;;0.30;0.30;;;21.40;98.40;;;;;;5091409;28;20055;-69
2023/06/13 07:21:16;;;;;;;0.28;0.28;;;21.70;98.70;;;;;;5074281;28;20059;-69
2023/06/13 07:23:42;;;;;;;0.40;0.40;;;21.40;98.30;;;;;;5091708;28;20062;-69
2023/06/13 07:26:08;;;;;;;0.52;0.52;;;21.70;98.50;;;;;;5073739;28;20108;-68
2023/06/13 07:28:34;;;;;;;0.20;0.20;;;21.80;98.70;;;;;;5091624;28;20052;-69
2023/06/13 07:30:59;;;;;;;0.52;0.52;;;21.90;98.30;;;;;;5092211;28;20537;-69
2023/06/13 07:33:25;;;;;;;0.40;0.40;;;22.10;97.90;;;;;;5091060;28;20043;-68
2023/06/13 07:35:52;;;;;;;0.55;0.55;;;21.80;98.20;;;;;;5090326;28;20060;-67
2023/06/13 07:38:20;;;;;;;0.60;0.20;;;22.00;98.80;;;;;;5091987;28;20408;-69
2023/06/13 07:40:46;;;;;;;1.95;0.40;;;22.10;98.40;;;;;;5092317;28;20043;-67
2023/06/13 07:43:12;;;;;;;0.20;0.20;;;22.20;98.50;;;;;;5091197;28;20060;-70
2023/06/13 07:45:39;;;;;;;0.32;0.32;;;22.00;97.90;;;;;;5089649;28;20062;-65
2023/06/13 07:48:05;;;;;;;0.70;0.50;;;22.50;98.00;;;;;;5090785;28;20043;-67
2023/06/13 07:50:31;;;;;;;1.25;0.43;;;22.30;97.40;;;;;;5087893;28;20055;-63
2023/06/13 07:52:57;;;;;;;3.03;1.08;;;22.50;98.30;;;;;;5091929;28;20543;-65
2023/06/13 07:55:24;;;;;;;0.30;0.30;;;22.40;97.80;;;;;;5091838;28;20071;-62
2023/06/13 07:57:50;;;;;;;0.73;0.68;;;22.80;98.30;;;;;;5073182;28;20136;-63
2023/06/13 08:00:17;;;;;;;0.40;0.40;;;23.00;97.70;;;;;;5091767;28;20044;-66
2023/06/13 08:02:44;;;;;;;0.38;0.38;;;22.80;97.00;;;;;;5091928;28;20054;-62
2023/06/13 08:05:12;;;;;;;0.20;0.20;;;22.80;97.50;;;;;;5091001;28;20048;-71
2023/06/13 08:07:39;;;;;;;0.98;0.50;;;23.10;97.10;;;;;;5072911;28;20056;-64
2023/06/13 08:10:06;;;;;;;0.25;0.25;;;23.00;97.40;;;;;;5091669;28;20044;-66
2023/06/13 08:12:32;;;;;;;0.40;0.40;;;23.50;97.60;;;;;;5092492;28;20098;-68
2023/06/13 08:14:58;;;;;;;0.38;0.38;;;23.40;97.20;;;;;;5090756;28;20058;-66
2023/06/13 08:17:24;;;;;;;0.28;0.25;;;23.40;96.50;;;;;;5090911;28;20083;-67
2023/06/13 08:19:51;;;;;;;0.38;0.38;;;23.40;96.50;;;;;;5090285;28;20083;-66
2023/06/13 08:22:18;;;;;;;0.28;0.28;;;23.50;96.80;;;;;;5090277;28;20097;-66
2023/06/13 08:24:45;;;;;;;0.22;0.22;;;23.50;99.90;;;;;;5091643;28;20044;-67
2023/06/13 08:27:16;;;;;;;0.65;0.50;;;23.70;99.90;;;;;;5091585;28;20103;-69
2023/06/13 08:29:43;;;;;;;0.20;0.20;;;23.90;99.90;;;;;;5090595;28;20056;-67
2023/06/13 08:32:09;;;;;;;0.43;0.43;;;23.40;99.90;;;;;;5091457;28;20052;-68
2023/06/13 08:34:37;;;;;;;0.43;0.43;;;23.50;99.90;;;;;;5091713;28;20177;-67
2023/06/13 08:37:04;;;;;;;0.10;0.10;;;23.30;99.90;;;;;;5090095;28;20054;-65
2023/06/13 08:39:30;;;;;;;0.30;0.30;;;23.20;99.90;;;;;;5074017;28;20052;-66
2023/06/13 08:41:56;;;;;;;0.10;0.10;;;23.40;99.90;;;;;;5090277;28;20448;-68
2023/06/13 08:44:25;;;;;;;0.28;0.20;;;23.30;99.90;;;;;;5091483;28;20051;-69
2023/06/13 08:46:51;;;;;;;0.50;0.50;;;23.20;99.90;;;;;;5091149;28;20056;-68
2023/06/13 08:49:17;;;;;;;0.22;0.22;;;23.20;99.90;;;;;;5091531;28;20060;-68
2023/06/13 08:51:47;;;;;;;0.10;0.10;;;23.10;99.90;;;;;;5091223;28;20051;-69
2023/06/13 08:54:15;;;;;;;0.10;0.10;;;23.10;99.90;;;;;;5090324;28;20067;-70
2023/06/13 08:56:41;;;;;;;0.32;0.32;;;23.10;99.90;;;;;;5073298;28;20415;-70
2023/06/13 08:59:11;;;;;;;0.95;0.57;;;23.40;99.90;;;;;;5090106;28;20491;-68
2023/06/13 09:01:38;;;;;;;0.20;0.20;;;23.00;99.90;;;;;;5091449;28;20058;-68
2023/06/13 09:04:07;;;;;;;0.30;0.30;;;23.00;99.90;;;;;;5091217;28;20051;-69
2023/06/13 09:06:37;;;;;;;0.90;0.60;;;23.00;99.90;;;;;;5089464;28;20048;-68
2023/06/13 09:09:07;;;;;;;1.65;1.55;;;23.00;99.90;;;;;;5091882;28;20081;-68
2023/06/13 09:11:35;;;;;;;1.65;1.48;;;22.80;99.90;;;;;;5093855;28;20044;-67
2023/06/13 09:14:03;;;;;;;0.50;0.45;;;22.80;99.90;;;;;;5091559;28;20040;-70
2023/06/13 09:16:31;;;;;;;3.17;1.00;;;22.80;99.90;;;;;;5095351;28;20052;-65
2023/06/13 09:18:58;;;;;;;0.17;0.17;;;22.50;99.90;;;;;;5091639;28;20163;-67
2023/06/13 09:21:25;;;;;;;0.20;0.20;;;22.30;99.90;;;;;;5094285;28;20189;-69
2023/06/13 09:23:57;;;;;;;0.20;0.20;;;22.50;99.90;;;;;;5091532;28;20048;-64
2023/06/13 09:26:25;;;;;;;0.20;0.20;;;23.00;99.90;;;;;;5092534;28;20408;-66
2023/06/13 09:28:52;;;;;;;0.20;0.20;;;22.70;99.90;;;;;;5074176;28;20059;-66
2023/06/13 09:31:18;;;;;;;0.40;0.38;;;23.00;99.90;;;;;;5086903;28;20130;-66
2023/06/13 09:33:45;;;;;;;0.50;0.50;;;23.00;99.90;;;;;;5092647;28;20052;-67
2023/06/13 09:36:10;;;;;;;0.13;0.13;;;23.40;99.90;;;;;;5092713;28;20438;-66
2023/06/13 09:38:40;;;;;;;0.75;0.75;;;22.90;99.90;;;;;;5093262;28;20052;-67
2023/06/13 09:41:07;;;;;;;0.55;0.47;;;22.60;99.90;;;;;;5093079;28;20055;-64
2023/06/13 09:43:33;;;;;;;0.70;0.63;;;22.40;99.90;;;;;;5093574;28;20446;-65
2023/06/13 09:46:00;;;;;;;0.10;0.10;;;22.80;99.90;;;;;;5093786;28;20048;-64
2023/06/13 09:48:25;;;;;;;0.10;0.10;;;22.60;99.90;;;;;;5093712;28;20125;-65
2023/06/13 09:50:52;;;;;;;0.00;0.00;;;22.80;99.90;;;;;;5093451;28;20079;-68
2023/06/13 09:53:18;;;;;;;2.25;0.45;;;23.20;99.90;;;;;;5092026;28;20137;-67
2023/06/13 09:55:44;;;;;;;0.47;0.47;;;23.50;99.90;;;;;;5094113;28;20094;-66
2023/06/13 09:58:10;;;;;;;0.25;0.25;;;23.40;99.90;;;;;;5094205;28;20055;-68
2023/06/13 10:00:36;;;;;;;0.50;0.50;;;23.40;99.90;;;;;;5093254;28;20058;-67
2023/06/13 10:03:02;;;;;;;0.38;0.38;;;23.70;99.90;;;;;;5094240;28;20212;-72
2023/06/13 10:05:28;;;;;;;0.30;0.30;;;23.70;99.90;;;;;;5094085;28;20086;-68
2023/06/13 10:07:55;;;;;;;0.30;0.30;;;23.40;99.90;;;;;;5093753;28;20059;-70
2023/06/13 10:10:21;;;;;;;0.63;0.55;;;23.30;99.90;;;;;;5094173;28;20083;-69
2023/06/13 10:13:02;;;;;;;0.57;0.57;;;23.10;99.90;;;;;;5094049;28;20082;-70
2023/06/13 10:15:43;;;;;;;0.57;0.57;;;23.40;99.90;;;;;;5094326;28;20047;-67
2023/06/13 10:18:12;;;;;;;1.08;0.10;;;23.30;99.90;;;;;;5093831;28;20048;-68
2023/06/13 10:20:39;;;;;;;1.10;0.20;;;23.30;99.90;;;;;;5092168;28;20054;-70
2023/06/13 10:23:10;;;;;;;1.02;0.85;;;23.10;99.90;;;;;;5093410;28;20089;-68
2023/06/13 10:25:37;;;;;;;0.25;0.25;;;23.50;99.90;;;;;;5093680;28;20411;-68
2023/06/13 10:28:20;;;;;;;0.32;0.32;;;23.60;99.90;;;;;;5093239;28;20051;-69
2023/06/13 10:31:05;;;;;;;0.10;0.10;;;23.10;99.60;;;;;;5093631;28;20091;-67
2023/06/13 10:33:47;;;;;;;0.10;0.10;;;23.50;99.90;;;;;;5093650;28;20052;-67
2023/06/13 10:36:40;;;;;;;0.25;0.25;;;23.50;99.90;;;;;;5093267;28;20145;-68
2023/06/13 10:39:09;;;;;;;0.65;0.60;;;23.20;97.40;;;;;;5090872;28;20064;-67
2023/06/13 10:41:51;;;;;;;0.10;0.10;;;23.30;98.30;;;;;;5093162;28;20480;-71
2023/06/13 10:44:53;;;;;;;0.20;0.20;;;23.60;98.70;;;;;;5092700;28;20148;-73
2023/06/13 10:47:19;;;;;;;0.13;0.13;;;23.40;98.80;;;;;;5092770;28;20083;-69
2023/06/13 10:49:48;;;;;;;0.40;0.38;;;23.60;99.90;;;;;;5093227;28;20048;-70
2023/06/13 10:52:17;;;;;;;0.22;0.22;;;23.70;99.90;;;;;;5092837;28;20109;-70
2023/06/13 10:54:51;;;;;;;1.75;0.98;;;23.50;99.00;;;;;;5093252;28;20060;-67
2023/06/13 10:57:18;;;;;;;0.65;0.40;;;23.50;99.50;;;;;;5093103;28;20373;-69
2023/06/13 10:59:47;;;;;;;0.28;0.22;;;23.60;99.90;;;;;;5093073;28;20119;-67
2023/06/13 11:02:15;;;;;;;0.25;0.20;;;23.40;99.90;;;;;;5092749;28;20044;-69
2023/06/13 11:04:48;;;;;;;0.08;0.08;;;23.60;99.40;;;;;;5093210;28;20063;-67
2023/06/13 11:07:23;;;;;;;0.85;0.47;;;23.60;99.90;;;;;;5092535;28;20127;-71
2023/06/13 11:10:16;;;;;;;1.02;0.98;;;23.50;98.80;;;;;;5092827;28;20401;-72
2023/06/13 11:12:43;;;;;;;0.20;0.20;;;23.70;99.50;;;;;;5090074;28;20471;-70
2023/06/13 11:15:26;;;;;;;0.10;0.10;;;23.60;99.30;;;;;;5093001;28;20091;-73
2023/06/13 11:18:06;;;;;;;0.20;0.20;;;23.00;97.60;;;;;;5092007;28;20043;-68
2023/06/13 11:20:32;;;;;;;0.22;0.22;;;23.30;98.40;;;;;;5092406;28;20052;-73
2023/06/13 11:22:58;;;;;;;0.65;0.55;;;25.70;99.70;;;;;;5090938;28;20404;-69
2023/06/13 11:25:24;;;;;;;0.52;0.40;;;23.50;97.50;;;;;;5092032;28;20047;-68
2023/06/13 11:27:50;;;;;;;0.17;0.17;;;23.30;98.10;;;;;;5092392;28;20056;-67
2023/06/13 11:30:17;;;;;;;0.50;0.28;;;23.90;97.80;;;;;;5092339;28;20094;-66
2023/06/13 11:32:43;;;;;;;1.02;0.28;;;23.60;96.60;;;;;;5091851;28;20080;-70
2023/06/13 11:35:13;;;;;;;0.22;0.20;;;23.70;96.60;;;;;;5092280;28;20098;-68
2023/06/13 11:37:46;;;;;;;0.55;0.20;;;23.50;97.30;;;;;;5091722;28;20032;-68
2023/06/13 11:40:25;;;;;;;0.45;0.20;;;23.70;97.00;;;;;;5092400;28;20047;-69
2023/06/13 11:42:51;;;;;;;0.10;0.10;;;23.90;95.80;;;;;;5092086;28;20043;-69
2023/06/13 11:45:21;;;;;;;0.10;0.10;;;23.90;96.20;;;;;;5090076;28;20138;-67
2023/06/13 11:47:47;;;;;;;0.00;0.00;;;23.70;95.80;;;;;;5091908;28;20430;-67
2023/06/13 11:50:12;;;;;;;0.30;0.28;;;23.60;96.50;;;;;;5091978;28;20043;-69
2023/06/13 11:52:38;;;;;;;0.00;0.00;;;23.90;95.40;;;;;;5091568;28;20400;-68
2023/06/13 11:55:19;;;;;;;0.00;0.00;;;23.60;96.90;;;;;;5091350;28;20044;-67
2023/06/13 11:57:48;;;;;;;0.10;0.10;;;23.70;99.70;;;;;;5103699;28;20094;-66
2023/06/13 12:00:14;;;;;;;0.32;0.32;;;23.10;95.60;;;;;;5112485;28;20396;-67
2023/06/13 12:02:40;;;;;;;0.60;0.60;;;23.70;98.90;;;;;;5113092;28;20176;-68
2023/06/13 12:05:10;;;;;;;0.30;0.30;;;23.70;98.50;;;;;;5112540;28;20134;-67
2023/06/13 12:07:35;;;;;;;0.00;0.00;;;23.50;97.40;;;;;;5112262;28;20508;-68
2023/06/13 12:10:01;;;;;;;0.10;0.10;;;23.90;98.00;;;;;;5111293;28;20048;-67
2023/06/13 12:12:27;;;;;;;0.30;0.30;;;23.80;98.60;;;;;;5112387;28;20105;-67
2023/06/13 12:14:54;;;;;;;0.65;0.65;;;24.00;99.90;;;;;;5111124;28;20050;-68
2023/06/13 12:17:21;;;;;;;0.30;0.30;;;23.60;97.20;;;;;;5112267;28;20044;-67
2023/06/13 12:19:46;;;;;;;0.10;0.10;;;23.20;99.40;;;;;;5111348;28;20084;-69
2023/06/13 12:22:15;;;;;;;0.25;0.25;;;23.60;99.90;;;;;;5112263;28;20422;-66
2023/06/13 12:24:41;;;;;;;0.22;0.22;;;23.50;99.90;;;;;;5112138;28;20050;-67
2023/06/13 12:27:07;;;;;;;0.30;0.30;;;24.00;99.90;;;;;;5110467;28;20117;-65
2023/06/13 12:29:34;;;;;;;0.22;0.22;;;23.30;99.90;;;;;;5111723;28;20056;-67
2023/06/13 12:32:03;;;;;;;0.28;0.28;;;23.40;99.90;;;;;;5111527;28;20047;-66
2023/06/13 12:34:34;;;;;;;0.47;0.20;;;23.50;99.90;;;;;;5111945;28;20130;-69
2023/06/13 12:37:06;;;;;;;0.30;0.30;;;23.90;99.50;;;;;;5111939;28;20069;-65
2023/06/13 12:39:33;;;;;;;0.28;0.22;;;23.90;99.20;;;;;;5111851;28;20047;-66
2023/06/13 12:42:02;;;;;;;0.10;0.10;;;23.70;99.90;;;;;;5111979;28;20100;-66
2023/06/13 12:44:30;;;;;;;0.00;0.00;;;24.00;99.90;;;;;;5115818;28;20126;-68
2023/06/13 12:46:59;;;;;;;0.00;0.00;;;23.70;99.60;;;;;;5115842;28;20043;-65
2023/06/13 12:49:24;;;;;;;0.38;0.38;;;23.80;99.90;;;;;;5115928;28;20058;-65
2023/06/13 12:51:52;;;;;;;0.10;0.10;;;23.80;99.20;;;;;;5098662;28;20044;-68
2023/06/13 12:54:25;;;;;;;0.75;0.75;;;23.90;98.30;;;;;;5093103;28;20177;-68